<?xml version="1.0" encoding="UTF-8" standalone="no" ?>
<gpx xmlns="http://www.topografix.com/GPX/1/1" xmlns:xsi="http://www.w3.org/2001/XMLSchema-instance" xsi:schemaLocation="http://www.topografix.com/GPX/1/1 http://www.topografix.com/GPX/1/1/gpx.xsd" version="1.1" creator="VisuGPX - https://www.visugpx.com">
  <metadata>
    <name>STEVENSON 1 : Le Puy-en-Velay - Monastier-sur-Gazeilles</name>
  </metadata>
  <trk>
    <name><![CDATA[STEVENSON 1 : Le Puy-en-Velay - Monastier-sur-Gazeilles]]></name>
    <trkseg>
      <trkpt lat="45.04309" lon="3.88366">
        <ele>637.66548431761</ele>
        <time>2021-03-30T13:54:15.000Z</time>
      </trkpt>
      <trkpt lat="45.04293" lon="3.8836">
        <ele>637.24359412678</ele>
        <time>2021-03-30T13:54:15.006Z</time>
      </trkpt>
      <trkpt lat="45.04289" lon="3.88399">
        <ele>636.25008415998</ele>
        <time>2021-03-30T13:54:15.021Z</time>
      </trkpt>
      <trkpt lat="45.04278" lon="3.88398">
        <ele>635.21015392466</ele>
        <time>2021-03-30T13:54:15.040Z</time>
      </trkpt>
      <trkpt lat="45.04244" lon="3.88389">
        <ele>634.02254403524</ele>
        <time>2021-03-30T13:54:15.070Z</time>
      </trkpt>
      <trkpt lat="45.042" lon="3.88382">
        <ele>632.42143511307</ele>
        <time>2021-03-30T13:54:15.115Z</time>
      </trkpt>
      <trkpt lat="45.04199" lon="3.88431">
        <ele>630.91201997875</ele>
        <time>2021-03-30T13:54:15.172Z</time>
      </trkpt>
      <trkpt lat="45.04202" lon="3.88465">
        <ele>629.5572468497</ele>
        <time>2021-03-30T13:54:15.237Z</time>
      </trkpt>
      <trkpt lat="45.04202" lon="3.88465">
        <ele>627.76160887565</ele>
        <time>2021-03-30T13:54:15.302Z</time>
      </trkpt>
      <trkpt lat="45.04202" lon="3.88465">
        <ele>627.21330622447</ele>
        <time>2021-03-30T13:54:15.367Z</time>
      </trkpt>
      <trkpt lat="45.04206" lon="3.8852">
        <ele>626.5430878322</ele>
        <time>2021-03-30T13:54:15.445Z</time>
      </trkpt>
      <trkpt lat="45.042" lon="3.88527">
        <ele>626.05147141549</ele>
        <time>2021-03-30T13:54:15.525Z</time>
      </trkpt>
      <trkpt lat="45.04197" lon="3.88528">
        <ele>625.69324673775</ele>
        <time>2021-03-30T13:54:15.606Z</time>
      </trkpt>
      <trkpt lat="45.04193" lon="3.88524">
        <ele>625.44430328479</ele>
        <time>2021-03-30T13:54:15.689Z</time>
      </trkpt>
      <trkpt lat="45.04193" lon="3.88524">
        <ele>625.2793335362</ele>
        <time>2021-03-30T13:54:15.772Z</time>
      </trkpt>
      <trkpt lat="45.04181" lon="3.88542">
        <ele>625.10270043447</ele>
        <time>2021-03-30T13:54:15.860Z</time>
      </trkpt>
      <trkpt lat="45.04178" lon="3.88558">
        <ele>624.99842423805</ele>
        <time>2021-03-30T13:54:15.952Z</time>
      </trkpt>
      <trkpt lat="45.04172" lon="3.88616">
        <ele>624.8710444428</ele>
        <time>2021-03-30T13:54:16.058Z</time>
      </trkpt>
      <trkpt lat="45.04177" lon="3.88636">
        <ele>624.81631496178</ele>
        <time>2021-03-30T13:54:16.169Z</time>
      </trkpt>
      <trkpt lat="45.04176" lon="3.8866">
        <ele>624.78657582094</ele>
        <time>2021-03-30T13:54:16.286Z</time>
      </trkpt>
      <trkpt lat="45.04176" lon="3.88661">
        <ele>624.68701563202</ele>
        <time>2021-03-30T13:54:16.403Z</time>
      </trkpt>
      <trkpt lat="45.04176" lon="3.88661">
        <ele>624.60849314387</ele>
        <time>2021-03-30T13:54:16.520Z</time>
      </trkpt>
      <trkpt lat="45.04176" lon="3.88661">
        <ele>624.50595226777</ele>
        <time>2021-03-30T13:54:16.637Z</time>
      </trkpt>
      <trkpt lat="45.04175" lon="3.88728">
        <ele>624.38407121829</ele>
        <time>2021-03-30T13:54:16.770Z</time>
      </trkpt>
      <trkpt lat="45.04154" lon="3.8875">
        <ele>624.21065934673</ele>
        <time>2021-03-30T13:54:16.912Z</time>
      </trkpt>
      <trkpt lat="45.04154" lon="3.8875">
        <ele>624.0433994926</ele>
        <time>2021-03-30T13:54:17.054Z</time>
      </trkpt>
      <trkpt lat="45.0415" lon="3.88756">
        <ele>623.8576677044</ele>
        <time>2021-03-30T13:54:17.198Z</time>
      </trkpt>
      <trkpt lat="45.04132" lon="3.88786">
        <ele>623.66105288302</ele>
        <time>2021-03-30T13:54:17.351Z</time>
      </trkpt>
      <trkpt lat="45.04126" lon="3.88802">
        <ele>623.52435103291</ele>
        <time>2021-03-30T13:54:17.508Z</time>
      </trkpt>
      <trkpt lat="45.04126" lon="3.88803">
        <ele>623.42877441339</ele>
        <time>2021-03-30T13:54:17.665Z</time>
      </trkpt>
      <trkpt lat="45.04132" lon="3.88827">
        <ele>623.37676531919</ele>
        <time>2021-03-30T13:54:17.828Z</time>
      </trkpt>
      <trkpt lat="45.04127" lon="3.8883">
        <ele>623.4066916237</ele>
        <time>2021-03-30T13:54:17.993Z</time>
      </trkpt>
      <trkpt lat="45.04125" lon="3.8884">
        <ele>623.50734984593</ele>
        <time>2021-03-30T13:54:18.160Z</time>
      </trkpt>
      <trkpt lat="45.04113" lon="3.8884">
        <ele>623.70681625619</ele>
        <time>2021-03-30T13:54:18.331Z</time>
      </trkpt>
      <trkpt lat="45.04109" lon="3.8888">
        <ele>624.01169844681</ele>
        <time>2021-03-30T13:54:18.512Z</time>
      </trkpt>
      <trkpt lat="45.04109" lon="3.8888">
        <ele>624.78250841273</ele>
        <time>2021-03-30T13:54:18.693Z</time>
      </trkpt>
      <trkpt lat="45.04109" lon="3.8888">
        <ele>625.27634491227</ele>
        <time>2021-03-30T13:54:18.874Z</time>
      </trkpt>
      <trkpt lat="45.04109" lon="3.8888">
        <ele>625.84067441293</ele>
        <time>2021-03-30T13:54:19.055Z</time>
      </trkpt>
      <trkpt lat="45.04105" lon="3.88924">
        <ele>626.58865092686</ele>
        <time>2021-03-30T13:54:19.246Z</time>
      </trkpt>
      <trkpt lat="45.04105" lon="3.88939">
        <ele>627.35578863487</ele>
        <time>2021-03-30T13:54:19.441Z</time>
      </trkpt>
      <trkpt lat="45.04118" lon="3.8902">
        <ele>628.43261342318</ele>
        <time>2021-03-30T13:54:19.656Z</time>
      </trkpt>
      <trkpt lat="45.04118" lon="3.8902">
        <ele>629.28037500106</ele>
        <time>2021-03-30T13:54:19.871Z</time>
      </trkpt>
      <trkpt lat="45.04119" lon="3.89023">
        <ele>630.13392612505</ele>
        <time>2021-03-30T13:54:20.086Z</time>
      </trkpt>
      <trkpt lat="45.04125" lon="3.89062">
        <ele>631.03687474012</ele>
        <time>2021-03-30T13:54:20.311Z</time>
      </trkpt>
      <trkpt lat="45.04125" lon="3.89062">
        <ele>631.90217490177</ele>
        <time>2021-03-30T13:54:20.536Z</time>
      </trkpt>
      <trkpt lat="45.04126" lon="3.89068">
        <ele>632.80741080654</ele>
        <time>2021-03-30T13:54:20.762Z</time>
      </trkpt>
      <trkpt lat="45.04144" lon="3.89127">
        <ele>633.77536651332</ele>
        <time>2021-03-30T13:54:21.003Z</time>
      </trkpt>
      <trkpt lat="45.04144" lon="3.89127">
        <ele>636.03265186666</ele>
        <time>2021-03-30T13:54:21.245Z</time>
      </trkpt>
      <trkpt lat="45.04144" lon="3.89127">
        <ele>637.38513799274</ele>
        <time>2021-03-30T13:54:21.487Z</time>
      </trkpt>
      <trkpt lat="45.04144" lon="3.89127">
        <ele>638.91585563013</ele>
        <time>2021-03-30T13:54:21.729Z</time>
      </trkpt>
      <trkpt lat="45.04155" lon="3.89167">
        <ele>640.70509016388</ele>
        <time>2021-03-30T13:54:21.981Z</time>
      </trkpt>
      <trkpt lat="45.04128" lon="3.89201">
        <ele>643.23547050935</ele>
        <time>2021-03-30T13:54:22.245Z</time>
      </trkpt>
      <trkpt lat="45.04089" lon="3.89251">
        <ele>645.57028924303</ele>
        <time>2021-03-30T13:54:22.526Z</time>
      </trkpt>
      <trkpt lat="45.04089" lon="3.89251">
        <ele>647.77927347582</ele>
        <time>2021-03-30T13:54:22.807Z</time>
      </trkpt>
      <trkpt lat="45.04065" lon="3.89295">
        <ele>650.20000380851</ele>
        <time>2021-03-30T13:54:23.101Z</time>
      </trkpt>
      <trkpt lat="45.04065" lon="3.89295">
        <ele>654.78346590306</ele>
        <time>2021-03-30T13:54:23.396Z</time>
      </trkpt>
      <trkpt lat="45.04065" lon="3.89295">
        <ele>657.09792148953</ele>
        <time>2021-03-30T13:54:23.691Z</time>
      </trkpt>
      <trkpt lat="45.04065" lon="3.89295">
        <ele>659.43755836076</ele>
        <time>2021-03-30T13:54:23.986Z</time>
      </trkpt>
      <trkpt lat="45.0405" lon="3.89322">
        <ele>661.9220021912</ele>
        <time>2021-03-30T13:54:24.289Z</time>
      </trkpt>
      <trkpt lat="45.04028" lon="3.89435">
        <ele>664.78712965089</ele>
        <time>2021-03-30T13:54:24.619Z</time>
      </trkpt>
      <trkpt lat="45.0402" lon="3.89473">
        <ele>667.37848396194</ele>
        <time>2021-03-30T13:54:24.959Z</time>
      </trkpt>
      <trkpt lat="45.04001" lon="3.89549">
        <ele>669.82617021849</ele>
        <time>2021-03-30T13:54:25.318Z</time>
      </trkpt>
      <trkpt lat="45.04001" lon="3.89549">
        <ele>672.16470266696</ele>
        <time>2021-03-30T13:54:25.677Z</time>
      </trkpt>
      <trkpt lat="45.03981" lon="3.89579">
        <ele>674.63858226322</ele>
        <time>2021-03-30T13:54:26.045Z</time>
      </trkpt>
      <trkpt lat="45.03946" lon="3.89601">
        <ele>677.18295765573</ele>
        <time>2021-03-30T13:54:26.426Z</time>
      </trkpt>
      <trkpt lat="45.03915" lon="3.89629">
        <ele>679.53462397926</ele>
        <time>2021-03-30T13:54:26.820Z</time>
      </trkpt>
      <trkpt lat="45.03908" lon="3.89642">
        <ele>681.57791171165</ele>
        <time>2021-03-30T13:54:27.218Z</time>
      </trkpt>
      <trkpt lat="45.03907" lon="3.89642">
        <ele>685.17487315355</ele>
        <time>2021-03-30T13:54:27.616Z</time>
      </trkpt>
      <trkpt lat="45.03907" lon="3.89643">
        <ele>686.88171274602</ele>
        <time>2021-03-30T13:54:28.014Z</time>
      </trkpt>
      <trkpt lat="45.03907" lon="3.89642">
        <ele>688.60236820668</ele>
        <time>2021-03-30T13:54:28.412Z</time>
      </trkpt>
      <trkpt lat="45.03869" lon="3.89708">
        <ele>690.94734468653</ele>
        <time>2021-03-30T13:54:28.830Z</time>
      </trkpt>
      <trkpt lat="45.03774" lon="3.897">
        <ele>692.94341646805</ele>
        <time>2021-03-30T13:54:29.279Z</time>
      </trkpt>
      <trkpt lat="45.03767" lon="3.89692">
        <ele>695.04999470654</ele>
        <time>2021-03-30T13:54:29.731Z</time>
      </trkpt>
      <trkpt lat="45.03756" lon="3.89705">
        <ele>697.52872885838</ele>
        <time>2021-03-30T13:54:30.188Z</time>
      </trkpt>
      <trkpt lat="45.03744" lon="3.89741">
        <ele>700.38093614247</ele>
        <time>2021-03-30T13:54:30.655Z</time>
      </trkpt>
      <trkpt lat="45.03738" lon="3.89747">
        <ele>703.42124074153</ele>
        <time>2021-03-30T13:54:31.124Z</time>
      </trkpt>
      <trkpt lat="45.03738" lon="3.89747">
        <ele>710.76869299624</ele>
        <time>2021-03-30T13:54:31.593Z</time>
      </trkpt>
      <trkpt lat="45.03738" lon="3.89748">
        <ele>715.18809081051</ele>
        <time>2021-03-30T13:54:32.062Z</time>
      </trkpt>
      <trkpt lat="45.03738" lon="3.89748">
        <ele>720.12492453908</ele>
        <time>2021-03-30T13:54:32.531Z</time>
      </trkpt>
      <trkpt lat="45.03709" lon="3.89776">
        <ele>725.73248695829</ele>
        <time>2021-03-30T13:54:33.012Z</time>
      </trkpt>
      <trkpt lat="45.03666" lon="3.89809">
        <ele>732.15632158277</ele>
        <time>2021-03-30T13:54:33.509Z</time>
      </trkpt>
      <trkpt lat="45.03558" lon="3.89921">
        <ele>739.63850531707</ele>
        <time>2021-03-30T13:54:34.051Z</time>
      </trkpt>
      <trkpt lat="45.03539" lon="3.9">
        <ele>746.19049664297</ele>
        <time>2021-03-30T13:54:34.613Z</time>
      </trkpt>
      <trkpt lat="45.03539" lon="3.9">
        <ele>752.25485978318</ele>
        <time>2021-03-30T13:54:35.175Z</time>
      </trkpt>
      <trkpt lat="45.03529" lon="3.90038">
        <ele>758.20639846545</ele>
        <time>2021-03-30T13:54:35.747Z</time>
      </trkpt>
      <trkpt lat="45.03495" lon="3.90078">
        <ele>764.06441537195</ele>
        <time>2021-03-30T13:54:36.333Z</time>
      </trkpt>
      <trkpt lat="45.03486" lon="3.90108">
        <ele>769.04357462334</ele>
        <time>2021-03-30T13:54:36.927Z</time>
      </trkpt>
      <trkpt lat="45.03486" lon="3.90108">
        <ele>776.75928216043</ele>
        <time>2021-03-30T13:54:37.521Z</time>
      </trkpt>
      <trkpt lat="45.03486" lon="3.90108">
        <ele>779.59029969386</ele>
        <time>2021-03-30T13:54:38.115Z</time>
      </trkpt>
      <trkpt lat="45.03486" lon="3.90108">
        <ele>781.73286558078</ele>
        <time>2021-03-30T13:54:38.709Z</time>
      </trkpt>
      <trkpt lat="45.03483" lon="3.90118">
        <ele>783.25223954632</ele>
        <time>2021-03-30T13:54:39.305Z</time>
      </trkpt>
      <trkpt lat="45.03385" lon="3.90153">
        <ele>784.39879152161</ele>
        <time>2021-03-30T13:54:39.935Z</time>
      </trkpt>
      <trkpt lat="45.03362" lon="3.90164">
        <ele>784.59533411912</ele>
        <time>2021-03-30T13:54:40.573Z</time>
      </trkpt>
      <trkpt lat="45.03307" lon="3.90205">
        <ele>784.05752757153</ele>
        <time>2021-03-30T13:54:41.232Z</time>
      </trkpt>
      <trkpt lat="45.03289" lon="3.90198">
        <ele>783.03589371367</ele>
        <time>2021-03-30T13:54:41.897Z</time>
      </trkpt>
      <trkpt lat="45.03267" lon="3.90179">
        <ele>781.49939903389</ele>
        <time>2021-03-30T13:54:42.571Z</time>
      </trkpt>
      <trkpt lat="45.03263" lon="3.90179">
        <ele>779.61216324395</ele>
        <time>2021-03-30T13:54:43.246Z</time>
      </trkpt>
      <trkpt lat="45.0324" lon="3.90184">
        <ele>777.26953459349</ele>
        <time>2021-03-30T13:54:43.929Z</time>
      </trkpt>
      <trkpt lat="45.03227" lon="3.90197">
        <ele>774.65645948135</ele>
        <time>2021-03-30T13:54:44.617Z</time>
      </trkpt>
      <trkpt lat="45.0322" lon="3.90213">
        <ele>771.9130187569</ele>
        <time>2021-03-30T13:54:45.309Z</time>
      </trkpt>
      <trkpt lat="45.03219" lon="3.90243">
        <ele>769.04259714472</ele>
        <time>2021-03-30T13:54:46.009Z</time>
      </trkpt>
      <trkpt lat="45.03219" lon="3.90243">
        <ele>766.24872980161</ele>
        <time>2021-03-30T13:54:46.709Z</time>
      </trkpt>
      <trkpt lat="45.03206" lon="3.90259">
        <ele>763.32168384214</ele>
        <time>2021-03-30T13:54:47.414Z</time>
      </trkpt>
      <trkpt lat="45.0316" lon="3.90268">
        <ele>760.32941220789</ele>
        <time>2021-03-30T13:54:48.135Z</time>
      </trkpt>
      <trkpt lat="45.03151" lon="3.90284">
        <ele>757.65903355516</ele>
        <time>2021-03-30T13:54:48.861Z</time>
      </trkpt>
      <trkpt lat="45.03154" lon="3.90306">
        <ele>755.20666790202</ele>
        <time>2021-03-30T13:54:49.592Z</time>
      </trkpt>
      <trkpt lat="45.03154" lon="3.90306">
        <ele>751.03322241643</ele>
        <time>2021-03-30T13:54:50.323Z</time>
      </trkpt>
      <trkpt lat="45.03154" lon="3.90306">
        <ele>749.25724562354</ele>
        <time>2021-03-30T13:54:51.054Z</time>
      </trkpt>
      <trkpt lat="45.03154" lon="3.90306">
        <ele>747.68063293619</ele>
        <time>2021-03-30T13:54:51.785Z</time>
      </trkpt>
      <trkpt lat="45.03174" lon="3.90464">
        <ele>746.13927779668</ele>
        <time>2021-03-30T13:54:52.554Z</time>
      </trkpt>
      <trkpt lat="45.0317" lon="3.90535">
        <ele>744.8567191161</ele>
        <time>2021-03-30T13:54:53.340Z</time>
      </trkpt>
      <trkpt lat="45.03112" lon="3.90547">
        <ele>743.74339336235</ele>
        <time>2021-03-30T13:54:54.145Z</time>
      </trkpt>
      <trkpt lat="45.03112" lon="3.90547">
        <ele>742.91926837099</ele>
        <time>2021-03-30T13:54:54.950Z</time>
      </trkpt>
      <trkpt lat="45.03112" lon="3.90547">
        <ele>741.80427733095</ele>
        <time>2021-03-30T13:54:55.755Z</time>
      </trkpt>
      <trkpt lat="45.03112" lon="3.90547">
        <ele>741.49540347365</ele>
        <time>2021-03-30T13:54:56.560Z</time>
      </trkpt>
      <trkpt lat="45.03112" lon="3.90547">
        <ele>741.3418709406</ele>
        <time>2021-03-30T13:54:57.365Z</time>
      </trkpt>
      <trkpt lat="45.03106" lon="3.90548">
        <ele>741.34172713833</ele>
        <time>2021-03-30T13:54:58.172Z</time>
      </trkpt>
      <trkpt lat="45.03097" lon="3.90561">
        <ele>741.49622758733</ele>
        <time>2021-03-30T13:54:58.983Z</time>
      </trkpt>
      <trkpt lat="45.031" lon="3.90605">
        <ele>741.99220830023</ele>
        <time>2021-03-30T13:54:59.805Z</time>
      </trkpt>
      <trkpt lat="45.03098" lon="3.90639">
        <ele>742.56425359222</ele>
        <time>2021-03-30T13:55:00.635Z</time>
      </trkpt>
      <trkpt lat="45.03105" lon="3.90663">
        <ele>743.23326788925</ele>
        <time>2021-03-30T13:55:01.471Z</time>
      </trkpt>
      <trkpt lat="45.03115" lon="3.90687">
        <ele>744.06509982642</ele>
        <time>2021-03-30T13:55:02.314Z</time>
      </trkpt>
      <trkpt lat="45.03113" lon="3.90701">
        <ele>745.08115312179</ele>
        <time>2021-03-30T13:55:03.160Z</time>
      </trkpt>
      <trkpt lat="45.03113" lon="3.90702">
        <ele>747.97293665322</ele>
        <time>2021-03-30T13:55:04.006Z</time>
      </trkpt>
      <trkpt lat="45.03113" lon="3.90702">
        <ele>749.98789963652</ele>
        <time>2021-03-30T13:55:04.852Z</time>
      </trkpt>
      <trkpt lat="45.03113" lon="3.90702">
        <ele>752.47026559628</ele>
        <time>2021-03-30T13:55:05.698Z</time>
      </trkpt>
      <trkpt lat="45.03111" lon="3.9071">
        <ele>755.48968834627</ele>
        <time>2021-03-30T13:55:06.546Z</time>
      </trkpt>
      <trkpt lat="45.0308" lon="3.90732">
        <ele>759.08834862819</ele>
        <time>2021-03-30T13:55:07.406Z</time>
      </trkpt>
      <trkpt lat="45.03014" lon="3.90765">
        <ele>763.3903864381</ele>
        <time>2021-03-30T13:55:08.289Z</time>
      </trkpt>
      <trkpt lat="45.02988" lon="3.90803">
        <ele>768.38767795142</ele>
        <time>2021-03-30T13:55:09.185Z</time>
      </trkpt>
      <trkpt lat="45.02967" lon="3.90821">
        <ele>773.75270237566</ele>
        <time>2021-03-30T13:55:10.089Z</time>
      </trkpt>
      <trkpt lat="45.02936" lon="3.9088">
        <ele>779.81808958073</ele>
        <time>2021-03-30T13:55:11.010Z</time>
      </trkpt>
      <trkpt lat="45.02912" lon="3.90903">
        <ele>786.07137127625</ele>
        <time>2021-03-30T13:55:11.941Z</time>
      </trkpt>
      <trkpt lat="45.02807" lon="3.90971">
        <ele>793.21080765614</ele>
        <time>2021-03-30T13:55:12.911Z</time>
      </trkpt>
      <trkpt lat="45.0275" lon="3.90989">
        <ele>799.4287621614</ele>
        <time>2021-03-30T13:55:13.900Z</time>
      </trkpt>
      <trkpt lat="45.02714" lon="3.91016">
        <ele>805.49461485412</ele>
        <time>2021-03-30T13:55:14.902Z</time>
      </trkpt>
      <trkpt lat="45.02605" lon="3.91019">
        <ele>811.22356000514</ele>
        <time>2021-03-30T13:55:15.941Z</time>
      </trkpt>
      <trkpt lat="45.02521" lon="3.91045">
        <ele>816.58453098209</ele>
        <time>2021-03-30T13:55:17.008Z</time>
      </trkpt>
      <trkpt lat="45.02511" lon="3.91057">
        <ele>821.09924202185</ele>
        <time>2021-03-30T13:55:18.080Z</time>
      </trkpt>
      <trkpt lat="45.0244" lon="3.91053">
        <ele>825.09958651864</ele>
        <time>2021-03-30T13:55:19.176Z</time>
      </trkpt>
      <trkpt lat="45.0241" lon="3.91063">
        <ele>828.53304198689</ele>
        <time>2021-03-30T13:55:20.282Z</time>
      </trkpt>
      <trkpt lat="45.0241" lon="3.91063">
        <ele>831.30212980993</ele>
        <time>2021-03-30T13:55:21.388Z</time>
      </trkpt>
      <trkpt lat="45.02409" lon="3.91064">
        <ele>835.27298637978</ele>
        <time>2021-03-30T13:55:22.494Z</time>
      </trkpt>
      <trkpt lat="45.02409" lon="3.91064">
        <ele>836.57570107074</ele>
        <time>2021-03-30T13:55:23.600Z</time>
      </trkpt>
      <trkpt lat="45.02409" lon="3.91064">
        <ele>837.49420474666</ele>
        <time>2021-03-30T13:55:24.706Z</time>
      </trkpt>
      <trkpt lat="45.02393" lon="3.91069">
        <ele>838.13872939498</ele>
        <time>2021-03-30T13:55:25.818Z</time>
      </trkpt>
      <trkpt lat="45.02365" lon="3.9109">
        <ele>838.47075945103</ele>
        <time>2021-03-30T13:55:26.940Z</time>
      </trkpt>
      <trkpt lat="45.02255" lon="3.91153">
        <ele>838.57230671633</ele>
        <time>2021-03-30T13:55:28.102Z</time>
      </trkpt>
      <trkpt lat="45.02255" lon="3.91153">
        <ele>838.36274760586</ele>
        <time>2021-03-30T13:55:29.264Z</time>
      </trkpt>
      <trkpt lat="45.02255" lon="3.91153">
        <ele>837.27856423107</ele>
        <time>2021-03-30T13:55:30.426Z</time>
      </trkpt>
      <trkpt lat="45.02255" lon="3.91153">
        <ele>836.41663052893</ele>
        <time>2021-03-30T13:55:31.588Z</time>
      </trkpt>
      <trkpt lat="45.02255" lon="3.91153">
        <ele>835.34062669867</ele>
        <time>2021-03-30T13:55:32.750Z</time>
      </trkpt>
      <trkpt lat="45.02249" lon="3.91156">
        <ele>834.04547632789</ele>
        <time>2021-03-30T13:55:33.914Z</time>
      </trkpt>
      <trkpt lat="45.02174" lon="3.91216">
        <ele>832.41241273732</ele>
        <time>2021-03-30T13:55:35.107Z</time>
      </trkpt>
      <trkpt lat="45.02107" lon="3.91317">
        <ele>830.56475220934</ele>
        <time>2021-03-30T13:55:36.333Z</time>
      </trkpt>
      <trkpt lat="45.02091" lon="3.91335">
        <ele>828.5396484189</ele>
        <time>2021-03-30T13:55:37.565Z</time>
      </trkpt>
      <trkpt lat="45.02075" lon="3.91336">
        <ele>826.29523427127</ele>
        <time>2021-03-30T13:55:38.803Z</time>
      </trkpt>
      <trkpt lat="45.02073" lon="3.91378">
        <ele>823.87636681591</ele>
        <time>2021-03-30T13:55:40.051Z</time>
      </trkpt>
      <trkpt lat="45.02038" lon="3.91444">
        <ele>820.98824904387</ele>
        <time>2021-03-30T13:55:41.318Z</time>
      </trkpt>
      <trkpt lat="45.02031" lon="3.91481">
        <ele>818.08705566076</ele>
        <time>2021-03-30T13:55:42.594Z</time>
      </trkpt>
      <trkpt lat="45.02025" lon="3.91486">
        <ele>815.08277396284</ele>
        <time>2021-03-30T13:55:43.873Z</time>
      </trkpt>
      <trkpt lat="45.02005" lon="3.91473">
        <ele>811.85914394823</ele>
        <time>2021-03-30T13:55:45.159Z</time>
      </trkpt>
      <trkpt lat="45.01987" lon="3.91394">
        <ele>808.73062302011</ele>
        <time>2021-03-30T13:55:46.464Z</time>
      </trkpt>
      <trkpt lat="45.01951" lon="3.91364">
        <ele>805.44483197195</ele>
        <time>2021-03-30T13:55:47.783Z</time>
      </trkpt>
      <trkpt lat="45.01889" lon="3.91387">
        <ele>801.78768940119</ele>
        <time>2021-03-30T13:55:49.123Z</time>
      </trkpt>
      <trkpt lat="45.0172" lon="3.91418">
        <ele>798.199495009</ele>
        <time>2021-03-30T13:55:50.520Z</time>
      </trkpt>
      <trkpt lat="45.0164" lon="3.91479">
        <ele>795.01613027378</ele>
        <time>2021-03-30T13:55:51.948Z</time>
      </trkpt>
      <trkpt lat="45.01596" lon="3.91484">
        <ele>792.0185577276</ele>
        <time>2021-03-30T13:55:53.390Z</time>
      </trkpt>
      <trkpt lat="45.01567" lon="3.9139">
        <ele>789.19172298546</ele>
        <time>2021-03-30T13:55:54.857Z</time>
      </trkpt>
      <trkpt lat="45.01549" lon="3.91364">
        <ele>786.83770305232</ele>
        <time>2021-03-30T13:55:56.332Z</time>
      </trkpt>
      <trkpt lat="45.01536" lon="3.91363">
        <ele>784.76576040151</ele>
        <time>2021-03-30T13:55:57.811Z</time>
      </trkpt>
      <trkpt lat="45.01499" lon="3.91383">
        <ele>782.9802007628</ele>
        <time>2021-03-30T13:55:59.304Z</time>
      </trkpt>
      <trkpt lat="45.01452" lon="3.9137">
        <ele>781.45586546977</ele>
        <time>2021-03-30T13:56:00.813Z</time>
      </trkpt>
      <trkpt lat="45.01418" lon="3.91344">
        <ele>780.19865992917</ele>
        <time>2021-03-30T13:56:02.334Z</time>
      </trkpt>
      <trkpt lat="45.01408" lon="3.91351">
        <ele>779.21428479028</ele>
        <time>2021-03-30T13:56:03.859Z</time>
      </trkpt>
      <trkpt lat="45.01398" lon="3.91375">
        <ele>778.47689656207</ele>
        <time>2021-03-30T13:56:05.391Z</time>
      </trkpt>
      <trkpt lat="45.01378" lon="3.91386">
        <ele>778.05999824152</ele>
        <time>2021-03-30T13:56:06.930Z</time>
      </trkpt>
      <trkpt lat="45.01374" lon="3.91388">
        <ele>777.77550809442</ele>
        <time>2021-03-30T13:56:08.471Z</time>
      </trkpt>
      <trkpt lat="45.01374" lon="3.91388">
        <ele>777.66258183422</ele>
        <time>2021-03-30T13:56:10.012Z</time>
      </trkpt>
      <trkpt lat="45.01373" lon="3.91388">
        <ele>777.93798814827</ele>
        <time>2021-03-30T13:56:11.553Z</time>
      </trkpt>
      <trkpt lat="45.01373" lon="3.91389">
        <ele>778.32519015727</ele>
        <time>2021-03-30T13:56:13.094Z</time>
      </trkpt>
      <trkpt lat="45.01373" lon="3.91389">
        <ele>778.88893385386</ele>
        <time>2021-03-30T13:56:14.635Z</time>
      </trkpt>
      <trkpt lat="45.01342" lon="3.91408">
        <ele>779.66945632098</ele>
        <time>2021-03-30T13:56:16.187Z</time>
      </trkpt>
      <trkpt lat="45.01334" lon="3.91372">
        <ele>780.60702629702</ele>
        <time>2021-03-30T13:56:17.748Z</time>
      </trkpt>
      <trkpt lat="45.01334" lon="3.91372">
        <ele>783.23633693313</ele>
        <time>2021-03-30T13:56:19.309Z</time>
      </trkpt>
      <trkpt lat="45.01334" lon="3.91372">
        <ele>784.93494734347</ele>
        <time>2021-03-30T13:56:20.870Z</time>
      </trkpt>
      <trkpt lat="45.01334" lon="3.91372">
        <ele>786.89828684353</ele>
        <time>2021-03-30T13:56:22.431Z</time>
      </trkpt>
      <trkpt lat="45.01326" lon="3.9134">
        <ele>789.17685162728</ele>
        <time>2021-03-30T13:56:24.000Z</time>
      </trkpt>
      <trkpt lat="45.01309" lon="3.91296">
        <ele>791.7109398668</ele>
        <time>2021-03-30T13:56:25.581Z</time>
      </trkpt>
      <trkpt lat="45.01299" lon="3.91245">
        <ele>794.3887803249</ele>
        <time>2021-03-30T13:56:27.174Z</time>
      </trkpt>
      <trkpt lat="45.0134" lon="3.91023">
        <ele>797.26479562559</ele>
        <time>2021-03-30T13:56:28.822Z</time>
      </trkpt>
      <trkpt lat="45.01341" lon="3.90928">
        <ele>800.42350158657</ele>
        <time>2021-03-30T13:56:30.492Z</time>
      </trkpt>
      <trkpt lat="45.0135" lon="3.90889">
        <ele>803.40969370054</ele>
        <time>2021-03-30T13:56:32.172Z</time>
      </trkpt>
      <trkpt lat="45.01279" lon="3.90754">
        <ele>806.30098192538</ele>
        <time>2021-03-30T13:56:33.892Z</time>
      </trkpt>
      <trkpt lat="45.01255" lon="3.9072">
        <ele>808.54003382938</ele>
        <time>2021-03-30T13:56:35.623Z</time>
      </trkpt>
      <trkpt lat="45.01242" lon="3.9067">
        <ele>810.42080412213</ele>
        <time>2021-03-30T13:56:37.366Z</time>
      </trkpt>
      <trkpt lat="45.01187" lon="3.90734">
        <ele>811.72142459142</ele>
        <time>2021-03-30T13:56:39.133Z</time>
      </trkpt>
      <trkpt lat="45.01186" lon="3.90734">
        <ele>812.7388238198</ele>
        <time>2021-03-30T13:56:40.900Z</time>
      </trkpt>
      <trkpt lat="45.01186" lon="3.90734">
        <ele>812.294056423</ele>
        <time>2021-03-30T13:56:42.667Z</time>
      </trkpt>
      <trkpt lat="45.01186" lon="3.90734">
        <ele>811.17016217521</ele>
        <time>2021-03-30T13:56:44.434Z</time>
      </trkpt>
      <trkpt lat="45.01138" lon="3.90788">
        <ele>809.20840550662</ele>
        <time>2021-03-30T13:56:46.222Z</time>
      </trkpt>
      <trkpt lat="45.01035" lon="3.91038">
        <ele>806.32780493315</ele>
        <time>2021-03-30T13:56:48.078Z</time>
      </trkpt>
      <trkpt lat="45.01005" lon="3.91091">
        <ele>803.00046520345</ele>
        <time>2021-03-30T13:56:49.950Z</time>
      </trkpt>
      <trkpt lat="45.00989" lon="3.91107">
        <ele>799.12115888942</ele>
        <time>2021-03-30T13:56:51.829Z</time>
      </trkpt>
      <trkpt lat="45.00974" lon="3.91106">
        <ele>794.74145966746</ele>
        <time>2021-03-30T13:56:53.713Z</time>
      </trkpt>
      <trkpt lat="45.00922" lon="3.91079">
        <ele>789.90979463597</ele>
        <time>2021-03-30T13:56:55.615Z</time>
      </trkpt>
      <trkpt lat="45.00848" lon="3.91061">
        <ele>784.27641329309</ele>
        <time>2021-03-30T13:56:57.543Z</time>
      </trkpt>
      <trkpt lat="45.00786" lon="3.91064">
        <ele>778.10057680253</ele>
        <time>2021-03-30T13:56:59.491Z</time>
      </trkpt>
      <trkpt lat="45.00776" lon="3.91065">
        <ele>771.90393638074</ele>
        <time>2021-03-30T13:57:01.443Z</time>
      </trkpt>
      <trkpt lat="45.00724" lon="3.9108">
        <ele>764.79855086169</ele>
        <time>2021-03-30T13:57:03.412Z</time>
      </trkpt>
      <trkpt lat="45.00675" lon="3.91125">
        <ele>758.31626431609</ele>
        <time>2021-03-30T13:57:05.401Z</time>
      </trkpt>
      <trkpt lat="45.00612" lon="3.91187">
        <ele>751.85800946549</ele>
        <time>2021-03-30T13:57:07.415Z</time>
      </trkpt>
      <trkpt lat="45.00609" lon="3.91226">
        <ele>745.73873076583</ele>
        <time>2021-03-30T13:57:09.439Z</time>
      </trkpt>
      <trkpt lat="45.00604" lon="3.91232">
        <ele>740.27077462141</ele>
        <time>2021-03-30T13:57:11.465Z</time>
      </trkpt>
      <trkpt lat="45.00555" lon="3.91237">
        <ele>735.14657771279</ele>
        <time>2021-03-30T13:57:13.507Z</time>
      </trkpt>
      <trkpt lat="45.00548" lon="3.91245">
        <ele>730.57731217519</ele>
        <time>2021-03-30T13:57:15.552Z</time>
      </trkpt>
      <trkpt lat="45.00495" lon="3.9128">
        <ele>726.22337585016</ele>
        <time>2021-03-30T13:57:17.617Z</time>
      </trkpt>
      <trkpt lat="45.00487" lon="3.91287">
        <ele>722.853135743</ele>
        <time>2021-03-30T13:57:19.685Z</time>
      </trkpt>
      <trkpt lat="45.00487" lon="3.91287">
        <ele>717.9474694506</ele>
        <time>2021-03-30T13:57:21.753Z</time>
      </trkpt>
      <trkpt lat="45.00466" lon="3.9131">
        <ele>716.21213816387</ele>
        <time>2021-03-30T13:57:23.830Z</time>
      </trkpt>
      <trkpt lat="45.00454" lon="3.91326">
        <ele>715.00499018542</ele>
        <time>2021-03-30T13:57:25.912Z</time>
      </trkpt>
      <trkpt lat="45.00448" lon="3.91332">
        <ele>714.30772863251</ele>
        <time>2021-03-30T13:57:27.997Z</time>
      </trkpt>
      <trkpt lat="45.00421" lon="3.9136">
        <ele>713.96727569255</ele>
        <time>2021-03-30T13:57:30.093Z</time>
      </trkpt>
      <trkpt lat="45.00421" lon="3.9136">
        <ele>714.4157240945</ele>
        <time>2021-03-30T13:57:32.189Z</time>
      </trkpt>
      <trkpt lat="45.00421" lon="3.9136">
        <ele>715.01837818482</ele>
        <time>2021-03-30T13:57:34.285Z</time>
      </trkpt>
      <trkpt lat="45.00421" lon="3.9136">
        <ele>715.79493510376</ele>
        <time>2021-03-30T13:57:36.381Z</time>
      </trkpt>
      <trkpt lat="45.00419" lon="3.9135">
        <ele>716.69397012534</ele>
        <time>2021-03-30T13:57:38.480Z</time>
      </trkpt>
      <trkpt lat="45.00413" lon="3.91343">
        <ele>717.62932825019</ele>
        <time>2021-03-30T13:57:40.581Z</time>
      </trkpt>
      <trkpt lat="45.00395" lon="3.9133">
        <ele>718.52003723875</ele>
        <time>2021-03-30T13:57:42.689Z</time>
      </trkpt>
      <trkpt lat="45.00389" lon="3.91319">
        <ele>719.40502932359</ele>
        <time>2021-03-30T13:57:44.800Z</time>
      </trkpt>
      <trkpt lat="45.00388" lon="3.91312">
        <ele>720.21089307695</ele>
        <time>2021-03-30T13:57:46.913Z</time>
      </trkpt>
      <trkpt lat="45.00385" lon="3.91313">
        <ele>720.8412803616</ele>
        <time>2021-03-30T13:57:49.027Z</time>
      </trkpt>
      <trkpt lat="45.00371" lon="3.91309">
        <ele>721.22024463786</ele>
        <time>2021-03-30T13:57:51.146Z</time>
      </trkpt>
      <trkpt lat="45.00364" lon="3.91303">
        <ele>721.39031329786</ele>
        <time>2021-03-30T13:57:53.268Z</time>
      </trkpt>
      <trkpt lat="45.00358" lon="3.91307">
        <ele>721.24732217073</ele>
        <time>2021-03-30T13:57:55.392Z</time>
      </trkpt>
      <trkpt lat="45.00345" lon="3.91305">
        <ele>720.7171696094</ele>
        <time>2021-03-30T13:57:57.520Z</time>
      </trkpt>
      <trkpt lat="45.00333" lon="3.91302">
        <ele>719.75905277722</ele>
        <time>2021-03-30T13:57:59.652Z</time>
      </trkpt>
      <trkpt lat="45.00333" lon="3.91302">
        <ele>718.44923367843</ele>
        <time>2021-03-30T13:58:01.784Z</time>
      </trkpt>
      <trkpt lat="45.00333" lon="3.91302">
        <ele>716.63393393347</ele>
        <time>2021-03-30T13:58:03.916Z</time>
      </trkpt>
      <trkpt lat="45.00334" lon="3.91298">
        <ele>714.28017487825</ele>
        <time>2021-03-30T13:58:06.049Z</time>
      </trkpt>
      <trkpt lat="45.00326" lon="3.91296">
        <ele>711.25865036493</ele>
        <time>2021-03-30T13:58:08.185Z</time>
      </trkpt>
      <trkpt lat="45.00308" lon="3.91305">
        <ele>707.54602556065</ele>
        <time>2021-03-30T13:58:10.327Z</time>
      </trkpt>
      <trkpt lat="45.00305" lon="3.91327">
        <ele>703.27881947554</ele>
        <time>2021-03-30T13:58:12.474Z</time>
      </trkpt>
      <trkpt lat="45.00313" lon="3.91402">
        <ele>698.35886379891</ele>
        <time>2021-03-30T13:58:14.639Z</time>
      </trkpt>
      <trkpt lat="45.003" lon="3.91435">
        <ele>692.81293602684</ele>
        <time>2021-03-30T13:58:16.813Z</time>
      </trkpt>
      <trkpt lat="45.00205" lon="3.91507">
        <ele>686.3591949241</ele>
        <time>2021-03-30T13:58:19.023Z</time>
      </trkpt>
      <trkpt lat="45.00075" lon="3.9158">
        <ele>679.74514373391</ele>
        <time>2021-03-30T13:58:21.280Z</time>
      </trkpt>
      <trkpt lat="45.00108" lon="3.91641">
        <ele>673.36266576983</ele>
        <time>2021-03-30T13:58:23.555Z</time>
      </trkpt>
      <trkpt lat="45.00102" lon="3.91701">
        <ele>666.9075241097</ele>
        <time>2021-03-30T13:58:25.845Z</time>
      </trkpt>
      <trkpt lat="44.99995" lon="3.91701">
        <ele>660.39009500253</ele>
        <time>2021-03-30T13:58:28.170Z</time>
      </trkpt>
      <trkpt lat="44.99995" lon="3.91701">
        <ele>654.47633937022</ele>
        <time>2021-03-30T13:58:30.495Z</time>
      </trkpt>
      <trkpt lat="44.99992" lon="3.91701">
        <ele>648.85947683479</ele>
        <time>2021-03-30T13:58:32.821Z</time>
      </trkpt>
      <trkpt lat="44.9994" lon="3.91701">
        <ele>642.85729612454</ele>
        <time>2021-03-30T13:58:35.165Z</time>
      </trkpt>
      <trkpt lat="44.9994" lon="3.91701">
        <ele>638.0515631258</ele>
        <time>2021-03-30T13:58:37.509Z</time>
      </trkpt>
      <trkpt lat="44.99905" lon="3.91731">
        <ele>633.43521259641</ele>
        <time>2021-03-30T13:58:39.866Z</time>
      </trkpt>
      <trkpt lat="44.99886" lon="3.9175">
        <ele>629.59326382497</ele>
        <time>2021-03-30T13:58:42.231Z</time>
      </trkpt>
      <trkpt lat="44.99874" lon="3.91698">
        <ele>626.39383629085</ele>
        <time>2021-03-30T13:58:44.609Z</time>
      </trkpt>
      <trkpt lat="44.99871" lon="3.91699">
        <ele>623.82080730572</ele>
        <time>2021-03-30T13:58:46.988Z</time>
      </trkpt>
      <trkpt lat="44.99865" lon="3.91702">
        <ele>621.79274923155</ele>
        <time>2021-03-30T13:58:49.369Z</time>
      </trkpt>
      <trkpt lat="44.9979" lon="3.91722">
        <ele>620.16574236028</ele>
        <time>2021-03-30T13:58:51.775Z</time>
      </trkpt>
      <trkpt lat="44.9979" lon="3.91722">
        <ele>619.25889651608</ele>
        <time>2021-03-30T13:58:54.181Z</time>
      </trkpt>
      <trkpt lat="44.99788" lon="3.91723">
        <ele>618.86000895886</ele>
        <time>2021-03-30T13:58:56.588Z</time>
      </trkpt>
      <trkpt lat="44.99788" lon="3.91723">
        <ele>618.8775797832</ele>
        <time>2021-03-30T13:58:58.995Z</time>
      </trkpt>
      <trkpt lat="44.99774" lon="3.91727">
        <ele>619.38805977285</ele>
        <time>2021-03-30T13:59:01.407Z</time>
      </trkpt>
      <trkpt lat="44.99756" lon="3.91732">
        <ele>620.24458233364</ele>
        <time>2021-03-30T13:59:03.825Z</time>
      </trkpt>
      <trkpt lat="44.99737" lon="3.91751">
        <ele>621.35834214137</ele>
        <time>2021-03-30T13:59:06.251Z</time>
      </trkpt>
      <trkpt lat="44.99726" lon="3.91777">
        <ele>622.63806802796</ele>
        <time>2021-03-30T13:59:08.684Z</time>
      </trkpt>
      <trkpt lat="44.99721" lon="3.91791">
        <ele>624.0672646099</ele>
        <time>2021-03-30T13:59:11.121Z</time>
      </trkpt>
      <trkpt lat="44.99699" lon="3.91821">
        <ele>625.70804319956</ele>
        <time>2021-03-30T13:59:13.568Z</time>
      </trkpt>
      <trkpt lat="44.9966" lon="3.91839">
        <ele>627.5010902646</ele>
        <time>2021-03-30T13:59:16.029Z</time>
      </trkpt>
      <trkpt lat="44.99626" lon="3.9184">
        <ele>629.48178075202</ele>
        <time>2021-03-30T13:59:18.501Z</time>
      </trkpt>
      <trkpt lat="44.99626" lon="3.9184">
        <ele>631.63863116037</ele>
        <time>2021-03-30T13:59:20.973Z</time>
      </trkpt>
      <trkpt lat="44.99575" lon="3.91825">
        <ele>634.14481980112</ele>
        <time>2021-03-30T13:59:23.462Z</time>
      </trkpt>
      <trkpt lat="44.99545" lon="3.91805">
        <ele>636.87556281438</ele>
        <time>2021-03-30T13:59:25.962Z</time>
      </trkpt>
      <trkpt lat="44.99538" lon="3.91802">
        <ele>639.65401069207</ele>
        <time>2021-03-30T13:59:28.465Z</time>
      </trkpt>
      <trkpt lat="44.99508" lon="3.91788">
        <ele>642.74784879684</ele>
        <time>2021-03-30T13:59:30.978Z</time>
      </trkpt>
      <trkpt lat="44.99483" lon="3.91777">
        <ele>645.97641320165</ele>
        <time>2021-03-30T13:59:33.500Z</time>
      </trkpt>
      <trkpt lat="44.9946" lon="3.91786">
        <ele>649.30751958052</ele>
        <time>2021-03-30T13:59:36.030Z</time>
      </trkpt>
      <trkpt lat="44.99434" lon="3.91825">
        <ele>652.74440860414</ele>
        <time>2021-03-30T13:59:38.573Z</time>
      </trkpt>
      <trkpt lat="44.99366" lon="3.91898">
        <ele>656.86590956002</ele>
        <time>2021-03-30T13:59:41.144Z</time>
      </trkpt>
      <trkpt lat="44.99331" lon="3.91972">
        <ele>660.74643884333</ele>
        <time>2021-03-30T13:59:43.736Z</time>
      </trkpt>
      <trkpt lat="44.99331" lon="3.91972">
        <ele>664.28370372102</ele>
        <time>2021-03-30T13:59:46.328Z</time>
      </trkpt>
      <trkpt lat="44.99329" lon="3.91976">
        <ele>667.84318319734</ele>
        <time>2021-03-30T13:59:48.921Z</time>
      </trkpt>
      <trkpt lat="44.99329" lon="3.91976">
        <ele>671.43000980349</ele>
        <time>2021-03-30T13:59:51.514Z</time>
      </trkpt>
      <trkpt lat="44.99311" lon="3.92015">
        <ele>675.25840910429</ele>
        <time>2021-03-30T13:59:54.118Z</time>
      </trkpt>
      <trkpt lat="44.99311" lon="3.92015">
        <ele>678.97889376079</ele>
        <time>2021-03-30T13:59:56.722Z</time>
      </trkpt>
      <trkpt lat="44.99276" lon="3.92068">
        <ele>682.90150030666</ele>
        <time>2021-03-30T13:59:59.343Z</time>
      </trkpt>
      <trkpt lat="44.99234" lon="3.92069">
        <ele>687.02213082485</ele>
        <time>2021-03-30T14:00:01.978Z</time>
      </trkpt>
      <trkpt lat="44.99169" lon="3.92046">
        <ele>691.55900210438</ele>
        <time>2021-03-30T14:00:04.636Z</time>
      </trkpt>
      <trkpt lat="44.99133" lon="3.91958">
        <ele>696.16241528479</ele>
        <time>2021-03-30T14:00:07.318Z</time>
      </trkpt>
      <trkpt lat="44.99083" lon="3.91895">
        <ele>700.70542553747</ele>
        <time>2021-03-30T14:00:10.022Z</time>
      </trkpt>
      <trkpt lat="44.99083" lon="3.91895">
        <ele>704.7423871185</ele>
        <time>2021-03-30T14:00:12.726Z</time>
      </trkpt>
      <trkpt lat="44.99081" lon="3.91893">
        <ele>708.77864653392</ele>
        <time>2021-03-30T14:00:15.431Z</time>
      </trkpt>
      <trkpt lat="44.99081" lon="3.91893">
        <ele>712.79039890411</ele>
        <time>2021-03-30T14:00:18.136Z</time>
      </trkpt>
      <trkpt lat="44.99066" lon="3.91873">
        <ele>717.01774677771</ele>
        <time>2021-03-30T14:00:20.848Z</time>
      </trkpt>
      <trkpt lat="44.99057" lon="3.91842">
        <ele>721.36990900047</ele>
        <time>2021-03-30T14:00:23.568Z</time>
      </trkpt>
      <trkpt lat="44.9906" lon="3.91786">
        <ele>725.74062836305</ele>
        <time>2021-03-30T14:00:26.301Z</time>
      </trkpt>
      <trkpt lat="44.99076" lon="3.91704">
        <ele>730.61465987399</ele>
        <time>2021-03-30T14:00:29.054Z</time>
      </trkpt>
      <trkpt lat="44.99069" lon="3.91694">
        <ele>735.16887794458</ele>
        <time>2021-03-30T14:00:31.811Z</time>
      </trkpt>
      <trkpt lat="44.99032" lon="3.91673">
        <ele>739.99450193861</ele>
        <time>2021-03-30T14:00:34.581Z</time>
      </trkpt>
      <trkpt lat="44.99028" lon="3.91663">
        <ele>744.80594269158</ele>
        <time>2021-03-30T14:00:37.354Z</time>
      </trkpt>
      <trkpt lat="44.9909" lon="3.9158">
        <ele>749.9242862592</ele>
        <time>2021-03-30T14:00:40.155Z</time>
      </trkpt>
      <trkpt lat="44.99092" lon="3.91568">
        <ele>755.0750837003</ele>
        <time>2021-03-30T14:00:42.959Z</time>
      </trkpt>
      <trkpt lat="44.99081" lon="3.9156">
        <ele>760.42159821174</ele>
        <time>2021-03-30T14:00:45.767Z</time>
      </trkpt>
      <trkpt lat="44.98998" lon="3.91538">
        <ele>766.40844441255</ele>
        <time>2021-03-30T14:00:48.604Z</time>
      </trkpt>
      <trkpt lat="44.9898" lon="3.91525">
        <ele>772.02696385483</ele>
        <time>2021-03-30T14:00:51.447Z</time>
      </trkpt>
      <trkpt lat="44.9887" lon="3.91354">
        <ele>777.79839518868</ele>
        <time>2021-03-30T14:00:54.345Z</time>
      </trkpt>
      <trkpt lat="44.9881" lon="3.91342">
        <ele>783.19356940269</ele>
        <time>2021-03-30T14:00:57.263Z</time>
      </trkpt>
      <trkpt lat="44.98692" lon="3.91384">
        <ele>788.61280164207</ele>
        <time>2021-03-30T14:01:00.222Z</time>
      </trkpt>
      <trkpt lat="44.98614" lon="3.91385">
        <ele>793.60385231322</ele>
        <time>2021-03-30T14:01:03.207Z</time>
      </trkpt>
      <trkpt lat="44.9856" lon="3.91413">
        <ele>797.86983174093</ele>
        <time>2021-03-30T14:01:06.211Z</time>
      </trkpt>
      <trkpt lat="44.98531" lon="3.91442">
        <ele>801.50374958454</ele>
        <time>2021-03-30T14:01:09.227Z</time>
      </trkpt>
      <trkpt lat="44.98511" lon="3.91445">
        <ele>804.46548870811</ele>
        <time>2021-03-30T14:01:12.250Z</time>
      </trkpt>
      <trkpt lat="44.98504" lon="3.91436">
        <ele>806.76171201961</ele>
        <time>2021-03-30T14:01:15.276Z</time>
      </trkpt>
      <trkpt lat="44.98424" lon="3.91349">
        <ele>808.34959021403</ele>
        <time>2021-03-30T14:01:18.335Z</time>
      </trkpt>
      <trkpt lat="44.98407" lon="3.91385">
        <ele>809.76298971545</ele>
        <time>2021-03-30T14:01:21.404Z</time>
      </trkpt>
      <trkpt lat="44.98407" lon="3.91385">
        <ele>810.78459068137</ele>
        <time>2021-03-30T14:01:24.474Z</time>
      </trkpt>
      <trkpt lat="44.98407" lon="3.91385">
        <ele>811.5828052549</ele>
        <time>2021-03-30T14:01:27.544Z</time>
      </trkpt>
      <trkpt lat="44.98407" lon="3.9139">
        <ele>812.278350719</ele>
        <time>2021-03-30T14:01:30.615Z</time>
      </trkpt>
      <trkpt lat="44.98407" lon="3.9139">
        <ele>812.96570298307</ele>
        <time>2021-03-30T14:01:33.686Z</time>
      </trkpt>
      <trkpt lat="44.98404" lon="3.91448">
        <ele>813.82548980429</ele>
        <time>2021-03-30T14:01:36.770Z</time>
      </trkpt>
      <trkpt lat="44.98408" lon="3.91483">
        <ele>814.85859478417</ele>
        <time>2021-03-30T14:01:39.863Z</time>
      </trkpt>
      <trkpt lat="44.98404" lon="3.91504">
        <ele>816.11937930625</ele>
        <time>2021-03-30T14:01:42.961Z</time>
      </trkpt>
      <trkpt lat="44.98366" lon="3.91578">
        <ele>817.90775215753</ele>
        <time>2021-03-30T14:01:46.081Z</time>
      </trkpt>
      <trkpt lat="44.98288" lon="3.91675">
        <ele>820.04306363774</ele>
        <time>2021-03-30T14:01:49.235Z</time>
      </trkpt>
      <trkpt lat="44.9826" lon="3.91699">
        <ele>822.50208880156</ele>
        <time>2021-03-30T14:01:52.400Z</time>
      </trkpt>
      <trkpt lat="44.98242" lon="3.91702">
        <ele>825.18569128338</ele>
        <time>2021-03-30T14:01:55.571Z</time>
      </trkpt>
      <trkpt lat="44.98222" lon="3.91689">
        <ele>828.17414905961</ele>
        <time>2021-03-30T14:01:58.750Z</time>
      </trkpt>
      <trkpt lat="44.98189" lon="3.91685">
        <ele>831.46565589302</ele>
        <time>2021-03-30T14:02:01.940Z</time>
      </trkpt>
      <trkpt lat="44.98161" lon="3.91707">
        <ele>835.00172939159</ele>
        <time>2021-03-30T14:02:05.140Z</time>
      </trkpt>
      <trkpt lat="44.98142" lon="3.91781">
        <ele>839.0269706391</ele>
        <time>2021-03-30T14:02:08.359Z</time>
      </trkpt>
      <trkpt lat="44.98146" lon="3.91832">
        <ele>842.93181570748</ele>
        <time>2021-03-30T14:02:11.590Z</time>
      </trkpt>
      <trkpt lat="44.9814" lon="3.9186">
        <ele>847.09197674673</ele>
        <time>2021-03-30T14:02:14.828Z</time>
      </trkpt>
      <trkpt lat="44.97955" lon="3.92151">
        <ele>852.15395833914</ele>
        <time>2021-03-30T14:02:18.158Z</time>
      </trkpt>
      <trkpt lat="44.97955" lon="3.92151">
        <ele>856.40302248595</ele>
        <time>2021-03-30T14:02:21.488Z</time>
      </trkpt>
      <trkpt lat="44.97953" lon="3.92153">
        <ele>860.60521638193</ele>
        <time>2021-03-30T14:02:24.819Z</time>
      </trkpt>
      <trkpt lat="44.97953" lon="3.92153">
        <ele>864.68710217402</ele>
        <time>2021-03-30T14:02:28.150Z</time>
      </trkpt>
      <trkpt lat="44.97942" lon="3.9217">
        <ele>868.63236010398</ele>
        <time>2021-03-30T14:02:31.487Z</time>
      </trkpt>
      <trkpt lat="44.97865" lon="3.92336">
        <ele>873.00423330774</ele>
        <time>2021-03-30T14:02:34.871Z</time>
      </trkpt>
      <trkpt lat="44.97762" lon="3.92506">
        <ele>876.74795248395</ele>
        <time>2021-03-30T14:02:38.308Z</time>
      </trkpt>
      <trkpt lat="44.97714" lon="3.9255">
        <ele>879.84135692273</ele>
        <time>2021-03-30T14:02:41.764Z</time>
      </trkpt>
      <trkpt lat="44.9769" lon="3.92582">
        <ele>882.27323285521</ele>
        <time>2021-03-30T14:02:45.231Z</time>
      </trkpt>
      <trkpt lat="44.97613" lon="3.92708">
        <ele>884.32570805624</ele>
        <time>2021-03-30T14:02:48.737Z</time>
      </trkpt>
      <trkpt lat="44.97571" lon="3.92752">
        <ele>885.58319743497</ele>
        <time>2021-03-30T14:02:52.260Z</time>
      </trkpt>
      <trkpt lat="44.97491" lon="3.92792">
        <ele>886.17950301215</ele>
        <time>2021-03-30T14:02:55.812Z</time>
      </trkpt>
      <trkpt lat="44.97444" lon="3.92805">
        <ele>886.59070999714</ele>
        <time>2021-03-30T14:02:59.380Z</time>
      </trkpt>
      <trkpt lat="44.97406" lon="3.92831">
        <ele>886.86558129281</ele>
        <time>2021-03-30T14:03:02.962Z</time>
      </trkpt>
      <trkpt lat="44.97346" lon="3.92914">
        <ele>886.71623334727</ele>
        <time>2021-03-30T14:03:06.572Z</time>
      </trkpt>
      <trkpt lat="44.97321" lon="3.92984">
        <ele>886.48351614909</ele>
        <time>2021-03-30T14:03:10.200Z</time>
      </trkpt>
      <trkpt lat="44.97307" lon="3.93003">
        <ele>886.21138008608</ele>
        <time>2021-03-30T14:03:13.835Z</time>
      </trkpt>
      <trkpt lat="44.97136" lon="3.93449">
        <ele>886.12316566114</ele>
        <time>2021-03-30T14:03:17.590Z</time>
      </trkpt>
      <trkpt lat="44.97111" lon="3.9349">
        <ele>885.66388905558</ele>
        <time>2021-03-30T14:03:21.358Z</time>
      </trkpt>
      <trkpt lat="44.97074" lon="3.93538">
        <ele>885.3854989284</ele>
        <time>2021-03-30T14:03:25.142Z</time>
      </trkpt>
      <trkpt lat="44.97013" lon="3.93667">
        <ele>885.35747815984</ele>
        <time>2021-03-30T14:03:28.963Z</time>
      </trkpt>
      <trkpt lat="44.96995" lon="3.93696">
        <ele>885.11068669361</ele>
        <time>2021-03-30T14:03:32.793Z</time>
      </trkpt>
      <trkpt lat="44.96995" lon="3.93696">
        <ele>884.8289601679</ele>
        <time>2021-03-30T14:03:36.623Z</time>
      </trkpt>
      <trkpt lat="44.96993" lon="3.93699">
        <ele>884.56542272917</ele>
        <time>2021-03-30T14:03:40.454Z</time>
      </trkpt>
      <trkpt lat="44.96993" lon="3.93699">
        <ele>884.37193621557</ele>
        <time>2021-03-30T14:03:44.285Z</time>
      </trkpt>
      <trkpt lat="44.9697" lon="3.93738">
        <ele>884.09652699497</ele>
        <time>2021-03-30T14:03:48.128Z</time>
      </trkpt>
      <trkpt lat="44.96919" lon="3.93865">
        <ele>883.95432703744</ele>
        <time>2021-03-30T14:03:52.006Z</time>
      </trkpt>
      <trkpt lat="44.96892" lon="3.93915">
        <ele>884.05633534774</ele>
        <time>2021-03-30T14:03:55.899Z</time>
      </trkpt>
      <trkpt lat="44.96825" lon="3.94001">
        <ele>884.67294559794</ele>
        <time>2021-03-30T14:03:59.822Z</time>
      </trkpt>
      <trkpt lat="44.9672" lon="3.94104">
        <ele>885.38535558696</ele>
        <time>2021-03-30T14:04:03.787Z</time>
      </trkpt>
      <trkpt lat="44.96675" lon="3.94144">
        <ele>886.14959036669</ele>
        <time>2021-03-30T14:04:07.770Z</time>
      </trkpt>
      <trkpt lat="44.96612" lon="3.94225">
        <ele>887.15683153507</ele>
        <time>2021-03-30T14:04:11.782Z</time>
      </trkpt>
      <trkpt lat="44.96571" lon="3.94262">
        <ele>888.34942582826</ele>
        <time>2021-03-30T14:04:15.810Z</time>
      </trkpt>
      <trkpt lat="44.96549" lon="3.94286">
        <ele>889.62717624644</ele>
        <time>2021-03-30T14:04:19.847Z</time>
      </trkpt>
      <trkpt lat="44.96479" lon="3.94393">
        <ele>890.93035625603</ele>
        <time>2021-03-30T14:04:23.919Z</time>
      </trkpt>
      <trkpt lat="44.96436" lon="3.94469">
        <ele>892.54878257111</ele>
        <time>2021-03-30T14:04:28.014Z</time>
      </trkpt>
      <trkpt lat="44.96431" lon="3.94479">
        <ele>894.48988053541</ele>
        <time>2021-03-30T14:04:32.112Z</time>
      </trkpt>
      <trkpt lat="44.964" lon="3.94543">
        <ele>896.65581151609</ele>
        <time>2021-03-30T14:04:36.228Z</time>
      </trkpt>
      <trkpt lat="44.96248" lon="3.94744">
        <ele>898.8473590363</ele>
        <time>2021-03-30T14:04:40.413Z</time>
      </trkpt>
      <trkpt lat="44.96194" lon="3.94837">
        <ele>901.50258444274</ele>
        <time>2021-03-30T14:04:44.627Z</time>
      </trkpt>
      <trkpt lat="44.96187" lon="3.94928">
        <ele>904.28764906917</ele>
        <time>2021-03-30T14:04:48.862Z</time>
      </trkpt>
      <trkpt lat="44.96205" lon="3.9505">
        <ele>907.06159189698</ele>
        <time>2021-03-30T14:04:53.127Z</time>
      </trkpt>
      <trkpt lat="44.96204" lon="3.95106">
        <ele>909.36115315617</ele>
        <time>2021-03-30T14:04:57.405Z</time>
      </trkpt>
      <trkpt lat="44.96204" lon="3.95106">
        <ele>911.07921083965</ele>
        <time>2021-03-30T14:05:01.683Z</time>
      </trkpt>
      <trkpt lat="44.96204" lon="3.9511">
        <ele>912.37941726451</ele>
        <time>2021-03-30T14:05:05.962Z</time>
      </trkpt>
      <trkpt lat="44.96204" lon="3.9511">
        <ele>913.21284281666</ele>
        <time>2021-03-30T14:05:10.241Z</time>
      </trkpt>
      <trkpt lat="44.96204" lon="3.95118">
        <ele>913.55993874601</ele>
        <time>2021-03-30T14:05:14.522Z</time>
      </trkpt>
      <trkpt lat="44.96222" lon="3.95316">
        <ele>913.1414553071</ele>
        <time>2021-03-30T14:05:18.850Z</time>
      </trkpt>
      <trkpt lat="44.9622" lon="3.95379">
        <ele>912.68293659556</ele>
        <time>2021-03-30T14:05:23.193Z</time>
      </trkpt>
      <trkpt lat="44.96245" lon="3.95692">
        <ele>911.89324095283</ele>
        <time>2021-03-30T14:05:27.611Z</time>
      </trkpt>
      <trkpt lat="44.96245" lon="3.95692">
        <ele>910.52400757402</ele>
        <time>2021-03-30T14:05:32.029Z</time>
      </trkpt>
      <trkpt lat="44.96258" lon="3.95852">
        <ele>908.36647951863</ele>
        <time>2021-03-30T14:05:36.485Z</time>
      </trkpt>
      <trkpt lat="44.96247" lon="3.95884">
        <ele>906.42324406427</ele>
        <time>2021-03-30T14:05:40.949Z</time>
      </trkpt>
      <trkpt lat="44.96168" lon="3.96039">
        <ele>904.09072371104</ele>
        <time>2021-03-30T14:05:45.458Z</time>
      </trkpt>
      <trkpt lat="44.96148" lon="3.96106">
        <ele>901.98226660683</ele>
        <time>2021-03-30T14:05:49.985Z</time>
      </trkpt>
      <trkpt lat="44.96126" lon="3.96148">
        <ele>900.27951208571</ele>
        <time>2021-03-30T14:05:54.524Z</time>
      </trkpt>
      <trkpt lat="44.96126" lon="3.96148">
        <ele>898.93845448209</ele>
        <time>2021-03-30T14:05:59.063Z</time>
      </trkpt>
      <trkpt lat="44.96084" lon="3.96185">
        <ele>898.05827790853</ele>
        <time>2021-03-30T14:06:03.619Z</time>
      </trkpt>
      <trkpt lat="44.96044" lon="3.96184">
        <ele>897.66003461388</ele>
        <time>2021-03-30T14:06:08.188Z</time>
      </trkpt>
      <trkpt lat="44.96024" lon="3.96198">
        <ele>897.14610548654</ele>
        <time>2021-03-30T14:06:12.764Z</time>
      </trkpt>
      <trkpt lat="44.96008" lon="3.96217">
        <ele>896.75903102913</ele>
        <time>2021-03-30T14:06:17.347Z</time>
      </trkpt>
      <trkpt lat="44.96008" lon="3.96217">
        <ele>896.5024249703</ele>
        <time>2021-03-30T14:06:21.930Z</time>
      </trkpt>
      <trkpt lat="44.96008" lon="3.96217">
        <ele>896.3173750882</ele>
        <time>2021-03-30T14:06:26.513Z</time>
      </trkpt>
      <trkpt lat="44.96006" lon="3.9622">
        <ele>896.14557744197</ele>
        <time>2021-03-30T14:06:31.097Z</time>
      </trkpt>
      <trkpt lat="44.96006" lon="3.9622">
        <ele>895.95892899545</ele>
        <time>2021-03-30T14:06:35.681Z</time>
      </trkpt>
      <trkpt lat="44.95976" lon="3.96294">
        <ele>895.61259036271</ele>
        <time>2021-03-30T14:06:40.286Z</time>
      </trkpt>
      <trkpt lat="44.95953" lon="3.96316">
        <ele>895.32391064088</ele>
        <time>2021-03-30T14:06:44.900Z</time>
      </trkpt>
      <trkpt lat="44.95932" lon="3.96335">
        <ele>894.99967363683</ele>
        <time>2021-03-30T14:06:49.522Z</time>
      </trkpt>
      <trkpt lat="44.9591" lon="3.96381">
        <ele>894.72267120183</ele>
        <time>2021-03-30T14:06:54.157Z</time>
      </trkpt>
      <trkpt lat="44.95892" lon="3.96471">
        <ele>893.75106376109</ele>
        <time>2021-03-30T14:06:58.814Z</time>
      </trkpt>
      <trkpt lat="44.9583" lon="3.96584">
        <ele>892.78581826602</ele>
        <time>2021-03-30T14:07:03.505Z</time>
      </trkpt>
      <trkpt lat="44.95701" lon="3.96705">
        <ele>891.91262063191</ele>
        <time>2021-03-30T14:07:08.248Z</time>
      </trkpt>
      <trkpt lat="44.95569" lon="3.96912">
        <ele>891.00470681938</ele>
        <time>2021-03-30T14:07:13.057Z</time>
      </trkpt>
      <trkpt lat="44.95555" lon="3.96938">
        <ele>890.19277388038</ele>
        <time>2021-03-30T14:07:17.873Z</time>
      </trkpt>
      <trkpt lat="44.95555" lon="3.96938">
        <ele>889.60287579603</ele>
        <time>2021-03-30T14:07:22.689Z</time>
      </trkpt>
      <trkpt lat="44.95555" lon="3.96938">
        <ele>889.28838082755</ele>
        <time>2021-03-30T14:07:27.505Z</time>
      </trkpt>
      <trkpt lat="44.95554" lon="3.96942">
        <ele>889.33354605678</ele>
        <time>2021-03-30T14:07:32.322Z</time>
      </trkpt>
      <trkpt lat="44.95554" lon="3.96942">
        <ele>889.86229527297</ele>
        <time>2021-03-30T14:07:37.139Z</time>
      </trkpt>
      <trkpt lat="44.95545" lon="3.96995">
        <ele>890.85960672883</ele>
        <time>2021-03-30T14:07:41.969Z</time>
      </trkpt>
      <trkpt lat="44.95535" lon="3.97043">
        <ele>892.57401211469</ele>
        <time>2021-03-30T14:07:46.811Z</time>
      </trkpt>
      <trkpt lat="44.95537" lon="3.97065">
        <ele>895.04242494712</ele>
        <time>2021-03-30T14:07:51.658Z</time>
      </trkpt>
      <trkpt lat="44.95495" lon="3.97057">
        <ele>898.51023211186</ele>
        <time>2021-03-30T14:07:56.519Z</time>
      </trkpt>
      <trkpt lat="44.95463" lon="3.97074">
        <ele>902.78332299095</ele>
        <time>2021-03-30T14:08:01.392Z</time>
      </trkpt>
      <trkpt lat="44.95453" lon="3.97095">
        <ele>907.61497660164</ele>
        <time>2021-03-30T14:08:06.271Z</time>
      </trkpt>
      <trkpt lat="44.9541" lon="3.97096">
        <ele>913.31676100309</ele>
        <time>2021-03-30T14:08:11.164Z</time>
      </trkpt>
      <trkpt lat="44.95349" lon="3.97114">
        <ele>919.87808525781</ele>
        <time>2021-03-30T14:08:16.078Z</time>
      </trkpt>
      <trkpt lat="44.95339" lon="3.97109">
        <ele>926.45375859814</ele>
        <time>2021-03-30T14:08:20.995Z</time>
      </trkpt>
      <trkpt lat="44.95339" lon="3.9709">
        <ele>933.22087850832</ele>
        <time>2021-03-30T14:08:25.917Z</time>
      </trkpt>
      <trkpt lat="44.95288" lon="3.97075">
        <ele>940.71448007849</ele>
        <time>2021-03-30T14:08:30.856Z</time>
      </trkpt>
      <trkpt lat="44.95245" lon="3.97046">
        <ele>947.93738011327</ele>
        <time>2021-03-30T14:08:35.811Z</time>
      </trkpt>
      <trkpt lat="44.95125" lon="3.97021">
        <ele>955.52965714333</ele>
        <time>2021-03-30T14:08:40.806Z</time>
      </trkpt>
      <trkpt lat="44.95125" lon="3.97021">
        <ele>961.46215355349</ele>
        <time>2021-03-30T14:08:45.801Z</time>
      </trkpt>
      <trkpt lat="44.95113" lon="3.97023">
        <ele>966.81148358764</ele>
        <time>2021-03-30T14:08:50.800Z</time>
      </trkpt>
      <trkpt lat="44.95104" lon="3.9703">
        <ele>971.46071263571</ele>
        <time>2021-03-30T14:08:55.803Z</time>
      </trkpt>
      <trkpt lat="44.95035" lon="3.97037">
        <ele>975.44164755701</ele>
        <time>2021-03-30T14:09:00.829Z</time>
      </trkpt>
      <trkpt lat="44.94954" lon="3.9703">
        <ele>978.60160505946</ele>
        <time>2021-03-30T14:09:05.882Z</time>
      </trkpt>
      <trkpt lat="44.9494" lon="3.9703">
        <ele>981.09089220355</ele>
        <time>2021-03-30T14:09:10.940Z</time>
      </trkpt>
      <trkpt lat="44.94915" lon="3.97019">
        <ele>982.93751476466</ele>
        <time>2021-03-30T14:09:16.006Z</time>
      </trkpt>
      <trkpt lat="44.94915" lon="3.97019">
        <ele>984.25772944571</ele>
        <time>2021-03-30T14:09:21.072Z</time>
      </trkpt>
      <trkpt lat="44.94912" lon="3.97018">
        <ele>985.11040488275</ele>
        <time>2021-03-30T14:09:26.139Z</time>
      </trkpt>
      <trkpt lat="44.94912" lon="3.97018">
        <ele>985.58313763399</ele>
        <time>2021-03-30T14:09:31.206Z</time>
      </trkpt>
      <trkpt lat="44.94883" lon="3.97004">
        <ele>985.76067171355</ele>
        <time>2021-03-30T14:09:36.284Z</time>
      </trkpt>
      <trkpt lat="44.94858" lon="3.97004">
        <ele>985.71291471372</ele>
        <time>2021-03-30T14:09:41.370Z</time>
      </trkpt>
      <trkpt lat="44.94774" lon="3.97075">
        <ele>985.51931474446</ele>
        <time>2021-03-30T14:09:46.489Z</time>
      </trkpt>
      <trkpt lat="44.94785" lon="3.97116">
        <ele>985.23737666205</ele>
        <time>2021-03-30T14:09:51.618Z</time>
      </trkpt>
      <trkpt lat="44.94783" lon="3.97132">
        <ele>984.78479160327</ele>
        <time>2021-03-30T14:09:56.751Z</time>
      </trkpt>
      <trkpt lat="44.94757" lon="3.97161">
        <ele>984.32099730518</ele>
        <time>2021-03-30T14:10:01.895Z</time>
      </trkpt>
      <trkpt lat="44.9475" lon="3.97165">
        <ele>983.72502086449</ele>
        <time>2021-03-30T14:10:07.041Z</time>
      </trkpt>
      <trkpt lat="44.9475" lon="3.97165">
        <ele>983.05144758398</ele>
        <time>2021-03-30T14:10:12.187Z</time>
      </trkpt>
      <trkpt lat="44.94747" lon="3.97167">
        <ele>982.34713180492</ele>
        <time>2021-03-30T14:10:17.334Z</time>
      </trkpt>
      <trkpt lat="44.94747" lon="3.97167">
        <ele>981.61078427022</ele>
        <time>2021-03-30T14:10:22.481Z</time>
      </trkpt>
      <trkpt lat="44.9474" lon="3.97171">
        <ele>980.87216105217</ele>
        <time>2021-03-30T14:10:27.631Z</time>
      </trkpt>
      <trkpt lat="44.94711" lon="3.97168">
        <ele>980.1274710338</ele>
        <time>2021-03-30T14:10:32.791Z</time>
      </trkpt>
      <trkpt lat="44.947" lon="3.97175">
        <ele>979.41904770734</ele>
        <time>2021-03-30T14:10:37.955Z</time>
      </trkpt>
      <trkpt lat="44.94675" lon="3.97177">
        <ele>978.73578639455</ele>
        <time>2021-03-30T14:10:43.127Z</time>
      </trkpt>
      <trkpt lat="44.94644" lon="3.97193">
        <ele>978.14504784564</ele>
        <time>2021-03-30T14:10:48.310Z</time>
      </trkpt>
      <trkpt lat="44.94604" lon="3.97245">
        <ele>977.31064540211</ele>
        <time>2021-03-30T14:10:53.511Z</time>
      </trkpt>
      <trkpt lat="44.94587" lon="3.9732">
        <ele>976.95251406037</ele>
        <time>2021-03-30T14:10:58.731Z</time>
      </trkpt>
      <trkpt lat="44.94593" lon="3.9742">
        <ele>977.34454789705</ele>
        <time>2021-03-30T14:11:03.974Z</time>
      </trkpt>
      <trkpt lat="44.94611" lon="3.97548">
        <ele>977.5888816662</ele>
        <time>2021-03-30T14:11:09.248Z</time>
      </trkpt>
      <trkpt lat="44.94606" lon="3.97597">
        <ele>977.6705746225</ele>
        <time>2021-03-30T14:11:14.534Z</time>
      </trkpt>
      <trkpt lat="44.94606" lon="3.97597">
        <ele>978.24109582539</ele>
        <time>2021-03-30T14:11:19.820Z</time>
      </trkpt>
      <trkpt lat="44.94606" lon="3.97601">
        <ele>978.98072093518</ele>
        <time>2021-03-30T14:11:25.107Z</time>
      </trkpt>
      <trkpt lat="44.94606" lon="3.97601">
        <ele>979.92598195666</ele>
        <time>2021-03-30T14:11:30.394Z</time>
      </trkpt>
      <trkpt lat="44.94611" lon="3.97548">
        <ele>981.30161243848</ele>
        <time>2021-03-30T14:11:35.694Z</time>
      </trkpt>
      <trkpt lat="44.94623" lon="3.97664">
        <ele>982.2508827269</ele>
        <time>2021-03-30T14:11:41.021Z</time>
      </trkpt>
      <trkpt lat="44.94631" lon="3.97744">
        <ele>983.4750707672</ele>
        <time>2021-03-30T14:11:46.367Z</time>
      </trkpt>
      <trkpt lat="44.94628" lon="3.9783">
        <ele>984.70557934019</ele>
        <time>2021-03-30T14:11:51.734Z</time>
      </trkpt>
      <trkpt lat="44.94615" lon="3.97922">
        <ele>985.48908621567</ele>
        <time>2021-03-30T14:11:57.123Z</time>
      </trkpt>
      <trkpt lat="44.94613" lon="3.98022">
        <ele>986.51469271444</ele>
        <time>2021-03-30T14:12:02.536Z</time>
      </trkpt>
      <trkpt lat="44.94613" lon="3.98022">
        <ele>986.84105545634</ele>
        <time>2021-03-30T14:12:07.949Z</time>
      </trkpt>
      <trkpt lat="44.94613" lon="3.98026">
        <ele>986.75134719863</ele>
        <time>2021-03-30T14:12:13.363Z</time>
      </trkpt>
      <trkpt lat="44.94613" lon="3.98026">
        <ele>986.18400378931</ele>
        <time>2021-03-30T14:12:18.777Z</time>
      </trkpt>
      <trkpt lat="44.94612" lon="3.98098">
        <ele>984.90360096905</ele>
        <time>2021-03-30T14:12:24.208Z</time>
      </trkpt>
      <trkpt lat="44.94623" lon="3.98198">
        <ele>983.31502376392</ele>
        <time>2021-03-30T14:12:29.663Z</time>
      </trkpt>
      <trkpt lat="44.94645" lon="3.98261">
        <ele>981.0131969735</ele>
        <time>2021-03-30T14:12:35.134Z</time>
      </trkpt>
      <trkpt lat="44.94661" lon="3.98278">
        <ele>978.26704178257</ele>
        <time>2021-03-30T14:12:40.612Z</time>
      </trkpt>
      <trkpt lat="44.94669" lon="3.98364">
        <ele>974.4040775786</ele>
        <time>2021-03-30T14:12:46.110Z</time>
      </trkpt>
      <trkpt lat="44.94669" lon="3.98364">
        <ele>970.93574641335</ele>
        <time>2021-03-30T14:12:51.608Z</time>
      </trkpt>
      <trkpt lat="44.94669" lon="3.98368">
        <ele>967.08569783637</ele>
        <time>2021-03-30T14:12:57.107Z</time>
      </trkpt>
      <trkpt lat="44.94669" lon="3.98368">
        <ele>963.00354666319</ele>
        <time>2021-03-30T14:13:02.606Z</time>
      </trkpt>
      <trkpt lat="44.9467" lon="3.98375">
        <ele>958.63288580804</ele>
        <time>2021-03-30T14:13:08.107Z</time>
      </trkpt>
      <trkpt lat="44.94669" lon="3.98437">
        <ele>953.75669684747</ele>
        <time>2021-03-30T14:13:13.623Z</time>
      </trkpt>
      <trkpt lat="44.94688" lon="3.98468">
        <ele>949.24973149139</ele>
        <time>2021-03-30T14:13:19.149Z</time>
      </trkpt>
      <trkpt lat="44.94675" lon="3.98516">
        <ele>944.70436529955</ele>
        <time>2021-03-30T14:13:24.687Z</time>
      </trkpt>
      <trkpt lat="44.94668" lon="3.98584">
        <ele>940.33358117286</ele>
        <time>2021-03-30T14:13:30.241Z</time>
      </trkpt>
      <trkpt lat="44.9469" lon="3.98749">
        <ele>936.61798103384</ele>
        <time>2021-03-30T14:13:35.835Z</time>
      </trkpt>
      <trkpt lat="44.94666" lon="3.98893">
        <ele>933.43710945132</ele>
        <time>2021-03-30T14:13:41.464Z</time>
      </trkpt>
      <trkpt lat="44.94677" lon="3.98903">
        <ele>930.99451027459</ele>
        <time>2021-03-30T14:13:47.098Z</time>
      </trkpt>
      <trkpt lat="44.94665" lon="3.98926">
        <ele>929.03821788777</ele>
        <time>2021-03-30T14:13:52.738Z</time>
      </trkpt>
      <trkpt lat="44.94665" lon="3.98926">
        <ele>927.56518685149</ele>
        <time>2021-03-30T14:13:58.378Z</time>
      </trkpt>
      <trkpt lat="44.94663" lon="3.98929">
        <ele>926.57116623816</ele>
        <time>2021-03-30T14:14:04.019Z</time>
      </trkpt>
      <trkpt lat="44.94663" lon="3.98929">
        <ele>926.00466191572</ele>
        <time>2021-03-30T14:14:09.660Z</time>
      </trkpt>
      <trkpt lat="44.94663" lon="3.98929">
        <ele>926.57116623816</ele>
        <time>2021-03-30T14:14:15.301Z</time>
      </trkpt>
      <trkpt lat="44.94648" lon="3.98943">
        <ele>925.95015383862</ele>
        <time>2021-03-30T14:14:20.948Z</time>
      </trkpt>
      <trkpt lat="44.94578" lon="3.98996">
        <ele>926.27564111454</ele>
        <time>2021-03-30T14:14:26.622Z</time>
      </trkpt>
      <trkpt lat="44.94482" lon="3.9906">
        <ele>927.07798093586</ele>
        <time>2021-03-30T14:14:32.331Z</time>
      </trkpt>
      <trkpt lat="44.94395" lon="3.99112">
        <ele>927.5058521524</ele>
        <time>2021-03-30T14:14:38.072Z</time>
      </trkpt>
      <trkpt lat="44.94362" lon="3.99147">
        <ele>927.9068263745</ele>
        <time>2021-03-30T14:14:43.827Z</time>
      </trkpt>
      <trkpt lat="44.94309" lon="3.99217">
        <ele>928.43833486495</ele>
        <time>2021-03-30T14:14:49.606Z</time>
      </trkpt>
      <trkpt lat="44.943" lon="3.99222">
        <ele>928.89640962251</ele>
        <time>2021-03-30T14:14:55.388Z</time>
      </trkpt>
      <trkpt lat="44.94226" lon="3.9927">
        <ele>929.28394503704</ele>
        <time>2021-03-30T14:15:01.197Z</time>
      </trkpt>
      <trkpt lat="44.94226" lon="3.9927">
        <ele>929.61941307966</ele>
        <time>2021-03-30T14:15:07.006Z</time>
      </trkpt>
      <trkpt lat="44.94223" lon="3.99272">
        <ele>929.84455412302</ele>
        <time>2021-03-30T14:15:12.816Z</time>
      </trkpt>
      <trkpt lat="44.94223" lon="3.99272">
        <ele>929.97282437159</ele>
        <time>2021-03-30T14:15:18.626Z</time>
      </trkpt>
      <trkpt lat="44.94142" lon="3.99324">
        <ele>929.97174346908</ele>
        <time>2021-03-30T14:15:24.466Z</time>
      </trkpt>
      <trkpt lat="44.941" lon="3.99328">
        <ele>929.93212347653</ele>
        <time>2021-03-30T14:15:30.320Z</time>
      </trkpt>
      <trkpt lat="44.94071" lon="3.99349">
        <ele>929.77464427265</ele>
        <time>2021-03-30T14:15:36.185Z</time>
      </trkpt>
      <trkpt lat="44.94071" lon="3.99349">
        <ele>929.5531994013</ele>
        <time>2021-03-30T14:15:42.050Z</time>
      </trkpt>
      <trkpt lat="44.9401" lon="3.99402">
        <ele>929.26703509311</ele>
        <time>2021-03-30T14:15:47.939Z</time>
      </trkpt>
      <trkpt lat="44.93991" lon="3.99405">
        <ele>928.99143058195</ele>
        <time>2021-03-30T14:15:53.834Z</time>
      </trkpt>
      <trkpt lat="44.93991" lon="3.99405">
        <ele>928.87509363763</ele>
        <time>2021-03-30T14:15:59.729Z</time>
      </trkpt>
      <trkpt lat="44.93974" lon="3.99407">
        <ele>928.85423879537</ele>
        <time>2021-03-30T14:16:05.630Z</time>
      </trkpt>
      <trkpt lat="44.93945" lon="3.99426">
        <ele>929.10323654807</ele>
        <time>2021-03-30T14:16:11.541Z</time>
      </trkpt>
      <trkpt lat="44.93945" lon="3.99426">
        <ele>929.38889954505</ele>
        <time>2021-03-30T14:16:17.452Z</time>
      </trkpt>
      <trkpt lat="44.93943" lon="3.99428">
        <ele>929.90555846524</ele>
        <time>2021-03-30T14:16:23.364Z</time>
      </trkpt>
      <trkpt lat="44.93943" lon="3.99428">
        <ele>930.68510599636</ele>
        <time>2021-03-30T14:16:29.276Z</time>
      </trkpt>
      <trkpt lat="44.93931" lon="3.99437">
        <ele>931.76728667441</ele>
        <time>2021-03-30T14:16:35.193Z</time>
      </trkpt>
      <trkpt lat="44.93919" lon="3.99451">
        <ele>933.18044953046</ele>
        <time>2021-03-30T14:16:41.115Z</time>
      </trkpt>
      <trkpt lat="44.93904" lon="3.9948">
        <ele>934.90488173333</ele>
        <time>2021-03-30T14:16:47.046Z</time>
      </trkpt>
      <trkpt lat="44.93883" lon="3.99534">
        <ele>936.81799259721</ele>
        <time>2021-03-30T14:16:52.991Z</time>
      </trkpt>
      <trkpt lat="44.93883" lon="3.99534">
        <ele>938.11576933921</ele>
        <time>2021-03-30T14:16:58.936Z</time>
      </trkpt>
      <trkpt lat="44.93846" lon="3.99547">
        <ele>939.3943985211</ele>
        <time>2021-03-30T14:17:04.894Z</time>
      </trkpt>
      <trkpt lat="44.93822" lon="3.9955">
        <ele>940.57213962872</ele>
        <time>2021-03-30T14:17:10.860Z</time>
      </trkpt>
      <trkpt lat="44.93775" lon="3.99554">
        <ele>941.49265986787</ele>
        <time>2021-03-30T14:17:16.842Z</time>
      </trkpt>
      <trkpt lat="44.93773" lon="3.99554">
        <ele>941.94200173505</ele>
        <time>2021-03-30T14:17:22.824Z</time>
      </trkpt>
      <trkpt lat="44.93739" lon="3.9957">
        <ele>942.05599720943</ele>
        <time>2021-03-30T14:17:28.819Z</time>
      </trkpt>
      <trkpt lat="44.93693" lon="3.99576">
        <ele>941.62080675316</ele>
        <time>2021-03-30T14:17:34.829Z</time>
      </trkpt>
      <trkpt lat="44.93667" lon="3.99588">
        <ele>941.43473614999</ele>
        <time>2021-03-30T14:17:40.848Z</time>
      </trkpt>
      <trkpt lat="44.93629" lon="3.99611">
        <ele>940.91482211389</ele>
        <time>2021-03-30T14:17:46.881Z</time>
      </trkpt>
      <trkpt lat="44.93623" lon="3.99612">
        <ele>940.267983799</ele>
        <time>2021-03-30T14:17:52.916Z</time>
      </trkpt>
      <trkpt lat="44.93612" lon="3.99615">
        <ele>939.36625828354</ele>
        <time>2021-03-30T14:17:58.954Z</time>
      </trkpt>
      <trkpt lat="44.93607" lon="3.99618">
        <ele>938.35424206828</ele>
        <time>2021-03-30T14:18:04.994Z</time>
      </trkpt>
      <trkpt lat="44.93555" lon="3.99638">
        <ele>937.06701397036</ele>
        <time>2021-03-30T14:18:11.052Z</time>
      </trkpt>
      <trkpt lat="44.93538" lon="3.99643">
        <ele>936.2258309363</ele>
        <time>2021-03-30T14:18:17.116Z</time>
      </trkpt>
      <trkpt lat="44.93538" lon="3.99642">
        <ele>935.49710207793</ele>
        <time>2021-03-30T14:18:23.180Z</time>
      </trkpt>
    </trkseg>
  </trk>
</gpx>